This is the latest recevied weather packets stored in our database for station/object WS2Z. If no packets are shown the sender has not sent any weather packets the latest 10 day(s).
| Time | Temp. | Humidity | Pressure | Rain* | Wind** | Luminosity | Snow |
|---|---|---|---|---|---|---|---|
| 1777158645 | 26.67° C | 68% | 1011 hPa | 0 mm | - | 51 W/m² | - |
| 1777158340 | 26.67° C | 66% | 1011 hPa | 0 mm | - | 60 W/m² | - |
| 1777158037 | 27.22° C | 65% | 1011 hPa | 0 mm | - | 70 W/m² | - |
| 1777157733 | 27.22° C | 66% | 1011 hPa | 0 mm | - | 81 W/m² | - |
| 1777157429 | 26.67° C | 66% | 1010.9 hPa | 0 mm | - | 93 W/m² | - |
| 1777157125 | 27.22° C | 65% | 1011 hPa | 0 mm | - | 107 W/m² | - |
| 1777156820 | 27.22° C | 64% | 1010.8 hPa | 0 mm | - | 121 W/m² | - |
| 1777156520 | 27.22° C | 65% | 1010.8 hPa | 0 mm | - | 138 W/m² | - |
| 1777156218 | 27.22° C | 63% | 1010.7 hPa | 0 mm | - | 153 W/m² | - |
| 1777155914 | 27.78° C | 63% | 1010.9 hPa | 0 mm | - | 171 W/m² | - |
| 1777155614 | 28.33° C | 61% | 1010.9 hPa | 0 mm | - | 192 W/m² | - |
| 1777155311 | 28.33° C | 61% | 1010.8 hPa | 0 mm | - | 212 W/m² | - |
| 1777155009 | 28.33° C | 61% | 1010.7 hPa | 0 mm | - | 237 W/m² | - |
| 1777154706 | 28.33° C | 62% | 1010.8 hPa | 0 mm | - | 259 W/m² | - |
| 1777154402 | 28.89° C | 61% | 1010.5 hPa | 0 mm | - | 279 W/m² | - |
| 1777154097 | 28.33° C | 62% | 1010.5 hPa | 0 mm | - | 296 W/m² | - |
| 1777153794 | 28.33° C | 63% | 1010.7 hPa | 0 mm | - | 315 W/m² | - |
| 1777153490 | 29.44° C | 59% | 1010.8 hPa | 0 mm | - | 343 W/m² | - |
| 1777153186 | 30° C | 58% | 1010.9 hPa | 0 mm | - | 382 W/m² | - |
| 1777152883 | 28.89° C | 60% | 1010.9 hPa | 0 mm | - | 384 W/m² | - |
| 1777152579 | 28.33° C | 61% | 1010.7 hPa | 0 mm | - | 404 W/m² | - |
| 1777152276 | 28.33° C | 61% | 1011 hPa | 0 mm | - | 416 W/m² | - |
| 1777151971 | 28.33° C | 61% | 1010.9 hPa | 0 mm | - | 401 W/m² | - |
| 1777151666 | 28.33° C | 60% | 1010.7 hPa | 0 mm | - | 398 W/m² | - |
| 1777151364 | 28.33° C | 62% | 1010.7 hPa | 0 mm | - | 404 W/m² | - |
* Rain latest hour (hover to see other rain measurements)
** Current wind speed in m/s (hover to see current wind gust speed)